Time;durP1;ratioP1;P1;durP2;ratioP2;P2;SDS_P1;SDS_P2;PMS_P1;PMS_P2;Temp;Humidity;BMP_temperature;BMP_pressure;BME280_temperature;BME280_humidity;BME280_pressure;Samples;Min_cycle;Max_cycle;Signal;HPM_P1;HPM_P2
2023/03/31 00:00:45;;;;;;;18.80;3.20;;;10.30;99.90;;;;;;4982169;28;20045;-56
2023/03/31 00:03:12;;;;;;;22.40;3.78;;;10.20;99.90;;;;;;4972829;28;20034;-56
2023/03/31 00:05:38;;;;;;;17.77;4.05;;;10.10;99.90;;;;;;4977459;28;20049;-55
2023/03/31 00:08:04;;;;;;;22.75;3.33;;;10.20;99.90;;;;;;4985965;28;20054;-56
2023/03/31 00:10:32;;;;;;;26.38;3.90;;;10.10;99.90;;;;;;4978543;28;20043;-56
2023/03/31 00:12:59;;;;;;;28.70;3.83;;;10.00;99.90;;;;;;4975338;28;20049;-54
2023/03/31 00:15:26;;;;;;;20.63;3.25;;;10.10;99.90;;;;;;4975655;28;20526;-57
2023/03/31 00:17:51;;;;;;;18.83;3.53;;;9.90;99.90;;;;;;4981107;28;20075;-57
2023/03/31 00:20:17;;;;;;;18.00;3.13;;;10.00;99.90;;;;;;4973547;28;20081;-55
2023/03/31 00:22:46;;;;;;;18.80;3.08;;;10.00;99.90;;;;;;4973140;28;20203;-56
2023/03/31 00:25:13;;;;;;;20.60;3.90;;;9.90;99.90;;;;;;4957919;28;20097;-55
2023/03/31 00:27:44;;;;;;;17.55;3.33;;;9.90;99.90;;;;;;4972432;28;20043;-53
2023/03/31 00:30:14;;;;;;;16.27;3.17;;;9.80;99.90;;;;;;4975134;28;20042;-54
2023/03/31 00:32:40;;;;;;;16.83;3.40;;;9.80;99.90;;;;;;4980974;28;20089;-55
2023/03/31 00:35:07;;;;;;;23.58;4.18;;;9.80;99.90;;;;;;4971766;28;20433;-53
2023/03/31 00:37:33;;;;;;;15.50;2.90;;;9.70;99.90;;;;;;4972084;28;20047;-56
2023/03/31 00:39:59;;;;;;;23.27;3.67;;;9.70;99.90;;;;;;4974485;28;20031;-57
2023/03/31 00:42:25;;;;;;;20.52;3.53;;;9.60;99.90;;;;;;4972699;28;20039;-56
2023/03/31 00:45:12;;;;;;;21.50;3.85;;;9.60;99.90;;;;;;4974971;28;20114;-55
2023/03/31 00:47:43;;;;;;;20.15;3.17;;;9.60;99.90;;;;;;4977450;28;20430;-55
2023/03/31 00:50:17;;;;;;;16.17;3.50;;;9.70;99.90;;;;;;4972496;28;20039;-55
2023/03/31 00:52:44;;;;;;;21.10;3.67;;;9.60;99.90;;;;;;4974739;28;20034;-54
2023/03/31 00:55:17;;;;;;;21.05;3.92;;;9.50;99.90;;;;;;4982184;28;20035;-54
2023/03/31 00:57:45;;;;;;;17.88;3.28;;;9.60;99.90;;;;;;4977650;28;20065;-57
2023/03/31 01:00:16;;;;;;;20.42;2.95;;;9.60;99.90;;;;;;4972988;28;20038;-57
2023/03/31 01:02:58;;;;;;;19.20;3.35;;;9.60;99.90;;;;;;4973754;28;20034;-56
2023/03/31 01:05:47;;;;;;;19.30;3.47;;;9.60;99.90;;;;;;4972003;28;20035;-58
2023/03/31 01:08:14;;;;;;;17.38;3.15;;;9.60;99.90;;;;;;4984217;28;20129;-57
2023/03/31 01:10:45;;;;;;;25.95;3.50;;;9.60;99.90;;;;;;4976035;28;20050;-57
2023/03/31 01:13:14;;;;;;;22.50;3.47;;;9.60;99.90;;;;;;4979662;28;20071;-55
2023/03/31 01:15:41;;;;;;;24.60;3.63;;;9.50;99.90;;;;;;4973605;28;20577;-55
2023/03/31 01:18:09;;;;;;;24.48;3.33;;;9.50;99.90;;;;;;4977991;28;20042;-55
2023/03/31 01:20:52;;;;;;;23.40;3.35;;;9.50;99.90;;;;;;4985746;28;20043;-56
2023/03/31 01:23:55;;;;;;;20.70;3.22;;;9.50;99.90;;;;;;4978173;28;20031;-56
2023/03/31 01:26:24;;;;;;;16.58;2.97;;;9.60;99.90;;;;;;4979440;28;20501;-56
2023/03/31 01:29:26;;;;;;;21.25;3.53;;;9.50;99.90;;;;;;4954842;28;20073;-54
2023/03/31 01:32:04;;;;;;;20.40;3.47;;;9.70;99.90;;;;;;4972998;28;20114;-56
2023/03/31 01:34:51;;;;;;;20.67;4.03;;;9.70;99.90;;;;;;4977584;28;20066;-56
2023/03/31 01:37:51;;;;;;;25.05;4.10;;;9.70;99.90;;;;;;4980496;28;20042;-56
2023/03/31 01:40:19;;;;;;;19.35;3.25;;;9.70;99.90;;;;;;4984604;28;20545;-58
2023/03/31 01:42:54;;;;;;;19.75;3.88;;;9.60;99.90;;;;;;4975660;28;20061;-55
2023/03/31 01:45:49;;;;;;;20.02;3.42;;;9.60;99.90;;;;;;4972560;28;20118;-56
2023/03/31 01:48:22;;;;;;;16.30;3.20;;;9.60;99.90;;;;;;4972805;28;20054;-56
2023/03/31 01:50:58;;;;;;;20.83;4.32;;;9.60;99.90;;;;;;4978806;28;20086;-54
2023/03/31 01:54:01;;;;;;;17.27;3.30;;;9.70;99.90;;;;;;4986761;28;20121;-53
2023/03/31 01:56:34;;;;;;;20.27;4.22;;;9.60;99.90;;;;;;4975215;28;20042;-55
2023/03/31 01:59:22;;;;;;;15.90;3.45;;;9.70;99.90;;;;;;4981896;28;20452;-57
2023/03/31 02:01:50;;;;;;;14.90;3.20;;;9.70;99.90;;;;;;4994180;28;20027;-54
2023/03/31 02:04:21;;;;;;;21.25;3.53;;;9.70;99.90;;;;;;4988890;28;20042;-56
2023/03/31 02:06:56;;;;;;;13.90;3.13;;;9.80;99.90;;;;;;4983514;28;20086;-56
2023/03/31 02:09:28;;;;;;;18.95;3.60;;;9.70;99.90;;;;;;4980898;28;20655;-56
2023/03/31 02:11:56;;;;;;;14.57;4.20;;;9.70;99.90;;;;;;4983945;28;20039;-56
2023/03/31 02:14:26;;;;;;;19.27;3.95;;;9.80;99.90;;;;;;4978625;28;20133;-56
2023/03/31 02:16:57;;;;;;;15.70;4.28;;;9.80;99.90;;;;;;4982507;28;20053;-56
2023/03/31 02:19:26;;;;;;;14.98;4.10;;;9.90;99.90;;;;;;4976181;28;20046;-57
2023/03/31 02:21:53;;;;;;;14.05;3.28;;;9.90;99.90;;;;;;4964974;28;20636;-54
2023/03/31 02:24:23;;;;;;;16.38;4.18;;;9.90;99.90;;;;;;4993946;28;20038;-54
2023/03/31 02:26:52;;;;;;;15.50;4.75;;;9.90;99.90;;;;;;4983393;28;20505;-55
2023/03/31 02:29:19;;;;;;;14.63;3.72;;;9.80;99.90;;;;;;4976437;28;20074;-57
2023/03/31 02:32:07;;;;;;;12.65;3.08;;;9.90;99.90;;;;;;4975500;28;20105;-55
2023/03/31 02:34:33;;;;;;;18.13;3.70;;;9.80;99.90;;;;;;4936859;28;20051;-56
2023/03/31 02:36:59;;;;;;;14.95;4.15;;;9.80;99.90;;;;;;4974282;28;20454;-55
2023/03/31 02:39:29;;;;;;;15.15;4.03;;;10.00;99.90;;;;;;4974002;28;20046;-54
2023/03/31 02:41:55;;;;;;;12.35;3.25;;;9.90;99.90;;;;;;4993514;28;20043;-56
2023/03/31 02:44:22;;;;;;;14.95;3.45;;;9.90;99.90;;;;;;4985262;28;20047;-56
2023/03/31 02:46:49;;;;;;;15.05;3.55;;;9.90;99.90;;;;;;4959816;28;20054;-56
2023/03/31 02:49:16;;;;;;;11.77;3.30;;;9.90;99.90;;;;;;4974033;28;20561;-54
2023/03/31 02:52:00;;;;;;;14.07;3.47;;;10.00;99.90;;;;;;4975165;28;20053;-55
2023/03/31 02:54:55;;;;;;;13.93;3.67;;;9.90;99.90;;;;;;4973090;28;20565;-56
2023/03/31 02:57:40;;;;;;;18.55;3.90;;;9.90;99.90;;;;;;4992681;28;20047;-56
2023/03/31 03:00:08;;;;;;;13.07;3.90;;;10.10;99.90;;;;;;4987329;28;20038;-55
2023/03/31 03:02:36;;;;;;;16.98;4.68;;;9.90;99.90;;;;;;4974723;28;20410;-56
2023/03/31 03:05:11;;;;;;;14.57;4.53;;;10.00;99.90;;;;;;4984045;28;20089;-56
2023/03/31 03:07:54;;;;;;;15.85;4.50;;;9.90;99.90;;;;;;4977374;28;20581;-54
2023/03/31 03:10:45;;;;;;;15.38;4.38;;;10.00;99.90;;;;;;4981108;28;20110;-57
2023/03/31 03:13:44;;;;;;;15.20;5.20;;;9.90;99.90;;;;;;4977413;28;20057;-54
2023/03/31 03:16:18;;;;;;;14.77;5.43;;;10.00;99.90;;;;;;4977692;28;20031;-56
2023/03/31 03:18:56;;;;;;;19.98;5.72;;;9.80;99.90;;;;;;4977684;28;20047;-54
2023/03/31 03:21:21;;;;;;;14.75;5.85;;;10.10;99.90;;;;;;4974372;28;20046;-54
2023/03/31 03:23:47;;;;;;;17.65;5.45;;;9.80;99.90;;;;;;4973975;28;20117;-55
2023/03/31 03:26:13;;;;;;;16.00;5.55;;;10.00;99.90;;;;;;4982350;28;20043;-53
2023/03/31 03:28:38;;;;;;;16.27;6.30;;;9.90;99.90;;;;;;4976326;28;20557;-53
2023/03/31 03:31:04;;;;;;;16.42;6.10;;;9.80;99.90;;;;;;4973231;28;20038;-56
2023/03/31 03:33:30;;;;;;;15.68;5.63;;;9.80;99.90;;;;;;4974268;28;20074;-54
2023/03/31 03:35:56;;;;;;;22.88;7.07;;;9.90;99.90;;;;;;4984873;28;20082;-54
2023/03/31 03:38:21;;;;;;;20.23;8.73;;;9.90;99.90;;;;;;4978499;28;20066;-53
2023/03/31 03:40:52;;;;;;;16.88;6.10;;;9.80;99.90;;;;;;4979240;28;20061;-52
2023/03/31 03:43:17;;;;;;;14.98;5.95;;;10.00;99.90;;;;;;4978795;28;20042;-57
2023/03/31 03:45:47;;;;;;;18.95;6.88;;;9.80;99.90;;;;;;4977329;28;20047;-54
2023/03/31 03:48:13;;;;;;;14.85;6.30;;;9.80;99.90;;;;;;4980621;28;20039;-56
2023/03/31 03:50:38;;;;;;;21.67;6.22;;;10.10;99.90;;;;;;4976455;28;20043;-55
2023/03/31 03:53:04;;;;;;;19.48;6.53;;;9.80;99.90;;;;;;4973373;28;20126;-54
2023/03/31 03:55:30;;;;;;;14.60;5.35;;;9.90;99.90;;;;;;4955386;28;20054;-55
2023/03/31 03:57:56;;;;;;;15.25;5.78;;;9.80;99.90;;;;;;4976922;28;20047;-52
2023/03/31 04:00:22;;;;;;;18.77;6.43;;;9.90;99.90;;;;;;4973402;28;20097;-55
2023/03/31 04:02:47;;;;;;;14.00;6.00;;;10.10;99.90;;;;;;4975038;28;20128;-54
2023/03/31 04:05:13;;;;;;;16.15;6.15;;;9.90;99.90;;;;;;4972616;28;20498;-56
2023/03/31 04:07:39;;;;;;;16.75;6.35;;;10.20;99.90;;;;;;4991675;28;20050;-56
2023/03/31 04:10:05;;;;;;;14.05;5.30;;;9.90;99.90;;;;;;4974741;28;20587;-53
2023/03/31 04:12:33;;;;;;;15.38;4.93;;;10.20;99.90;;;;;;4978478;28;20174;-55
2023/03/31 04:14:59;;;;;;;15.07;5.32;;;9.80;99.90;;;;;;4972473;28;20050;-55
2023/03/31 04:17:31;;;;;;;15.65;4.75;;;10.10;99.90;;;;;;4974467;28;20046;-54
2023/03/31 04:20:00;;;;;;;14.18;4.82;;;10.10;99.90;;;;;;4974138;28;20035;-53
2023/03/31 04:22:28;;;;;;;18.85;5.22;;;9.90;99.90;;;;;;4981627;28;20078;-57
2023/03/31 04:24:57;;;;;;;13.23;5.40;;;10.00;99.90;;;;;;4974047;28;20034;-55
2023/03/31 04:27:26;;;;;;;15.23;4.88;;;9.80;99.90;;;;;;4977475;28;20050;-54
2023/03/31 04:29:55;;;;;;;12.52;5.07;;;9.70;99.90;;;;;;4971853;28;20065;-56
2023/03/31 04:32:21;;;;;;;17.58;4.72;;;10.10;99.90;;;;;;4972526;28;20039;-54
2023/03/31 04:34:49;;;;;;;16.00;4.90;;;10.10;99.90;;;;;;4982235;28;20138;-54
2023/03/31 04:37:16;;;;;;;15.35;4.65;;;9.90;99.90;;;;;;4974611;28;20051;-56
2023/03/31 04:39:45;;;;;;;17.23;5.00;;;10.00;99.90;;;;;;4979912;28;20050;-54
2023/03/31 04:42:11;;;;;;;15.05;4.68;;;9.80;99.90;;;;;;4973904;28;20041;-54
2023/03/31 04:44:36;;;;;;;13.98;4.35;;;10.10;99.90;;;;;;4954600;28;20047;-56
2023/03/31 04:47:02;;;;;;;13.95;4.85;;;10.20;99.90;;;;;;4973749;28;20066;-55
2023/03/31 04:49:27;;;;;;;20.02;5.45;;;10.10;99.90;;;;;;4961914;28;20034;-57
2023/03/31 04:51:53;;;;;;;18.95;5.30;;;10.00;99.90;;;;;;4972637;28;20081;-54
2023/03/31 04:54:19;;;;;;;16.70;5.30;;;9.80;99.90;;;;;;4972246;28;20030;-53
2023/03/31 04:56:45;;;;;;;17.48;4.85;;;10.20;99.90;;;;;;4955400;28;20078;-54
2023/03/31 04:59:10;;;;;;;16.98;4.53;;;9.90;99.90;;;;;;4978961;28;20035;-52
2023/03/31 05:01:36;;;;;;;17.95;4.95;;;10.10;99.90;;;;;;4972032;28;20301;-55
2023/03/31 05:04:03;;;;;;;17.80;5.25;;;9.70;99.90;;;;;;4964886;28;20045;-55
2023/03/31 05:06:30;;;;;;;13.75;5.30;;;9.70;99.90;;;;;;4974185;28;20070;-54
2023/03/31 05:08:55;;;;;;;12.38;5.05;;;9.70;99.90;;;;;;4959830;28;20059;-53
2023/03/31 05:11:21;;;;;;;14.23;5.07;;;9.70;99.90;;;;;;4972492;28;20545;-54
2023/03/31 05:13:47;;;;;;;12.45;5.40;;;10.00;99.90;;;;;;4973989;28;20101;-55
2023/03/31 05:16:13;;;;;;;14.88;5.40;;;10.00;99.90;;;;;;4970992;28;20047;-52
2023/03/31 05:18:40;;;;;;;14.40;5.32;;;9.70;99.90;;;;;;4972611;28;20110;-55
2023/03/31 05:21:25;;;;;;;10.95;4.63;;;9.80;99.90;;;;;;4979223;28;20043;-55
2023/03/31 05:23:52;;;;;;;13.35;4.53;;;10.00;99.90;;;;;;4983225;28;20039;-54
2023/03/31 05:26:17;;;;;;;15.13;5.00;;;10.00;99.90;;;;;;4973934;28;20067;-55
2023/03/31 05:28:43;;;;;;;17.05;4.70;;;9.60;99.90;;;;;;4985581;28;20046;-52
2023/03/31 05:31:11;;;;;;;13.88;4.53;;;9.70;99.90;;;;;;4980123;28;20038;-54
2023/03/31 05:33:40;;;;;;;11.23;4.13;;;10.00;99.90;;;;;;4973830;28;20430;-54
2023/03/31 05:36:10;;;;;;;17.08;4.97;;;9.90;99.90;;;;;;4992200;28;20078;-55
2023/03/31 05:38:37;;;;;;;10.20;3.95;;;9.60;99.90;;;;;;4986886;28;20054;-54
2023/03/31 05:41:03;;;;;;;11.75;4.32;;;9.50;99.90;;;;;;4976435;28;20042;-55
2023/03/31 05:43:29;;;;;;;10.48;3.78;;;9.50;99.90;;;;;;4973872;28;20093;-55
2023/03/31 05:45:54;;;;;;;13.73;3.75;;;9.90;99.90;;;;;;4980933;28;20066;-54
2023/03/31 05:48:20;;;;;;;8.95;3.88;;;9.60;99.90;;;;;;4986813;28;20118;-53
2023/03/31 05:50:46;;;;;;;14.23;4.30;;;9.90;99.90;;;;;;4976557;28;20038;-55
2023/03/31 05:53:12;;;;;;;12.55;4.22;;;9.90;99.90;;;;;;4978210;28;20045;-55
2023/03/31 05:55:38;;;;;;;10.45;4.25;;;9.50;99.90;;;;;;4976104;28;20043;-56
2023/03/31 05:58:05;;;;;;;11.98;4.13;;;9.90;99.90;;;;;;4986130;28;20034;-52
2023/03/31 06:00:31;;;;;;;11.40;4.45;;;9.50;99.90;;;;;;4978725;28;20047;-53
2023/03/31 06:02:58;;;;;;;14.48;4.85;;;9.80;99.90;;;;;;4974475;28;20381;-53
2023/03/31 06:05:25;;;;;;;14.45;5.18;;;9.50;99.90;;;;;;4979442;28;20046;-56
2023/03/31 06:07:52;;;;;;;16.15;5.63;;;9.80;99.90;;;;;;4985116;28;20482;-53
2023/03/31 06:10:18;;;;;;;14.35;5.72;;;9.70;99.90;;;;;;4981556;28;20049;-54
2023/03/31 06:12:44;;;;;;;15.82;6.55;;;9.40;99.90;;;;;;4975750;28;20041;-53
2023/03/31 06:15:10;;;;;;;21.67;6.47;;;9.50;99.90;;;;;;4979182;28;20486;-54
2023/03/31 06:17:36;;;;;;;16.17;6.47;;;9.80;99.90;;;;;;4975232;28;20073;-55
2023/03/31 06:20:04;;;;;;;15.52;6.13;;;9.60;99.90;;;;;;4974710;28;20130;-55
2023/03/31 06:22:29;;;;;;;16.17;7.30;;;9.90;99.90;;;;;;4984842;28;20038;-52
2023/03/31 06:24:55;;;;;;;14.70;6.88;;;9.70;99.90;;;;;;4980092;28;20169;-54
2023/03/31 06:27:21;;;;;;;17.88;6.93;;;9.70;99.90;;;;;;4983610;28;20038;-53
2023/03/31 06:29:48;;;;;;;15.50;6.75;;;9.70;99.90;;;;;;4974711;28;20038;-53
2023/03/31 06:32:14;;;;;;;17.52;7.35;;;9.90;99.90;;;;;;4971457;28;21941;-54
2023/03/31 06:34:40;;;;;;;18.73;7.10;;;9.70;99.90;;;;;;4964334;28;20030;-53
2023/03/31 06:37:06;;;;;;;17.60;7.03;;;9.90;99.90;;;;;;4975546;28;20042;-53
2023/03/31 06:39:31;;;;;;;17.70;6.65;;;9.50;99.90;;;;;;4980132;28;20128;-51
2023/03/31 06:41:57;;;;;;;15.35;6.40;;;8.20;99.90;;;;;;4973076;28;20042;-54
2023/03/31 06:44:23;;;;;;;20.55;6.60;;;9.90;99.90;;;;;;4979274;28;20093;-54
2023/03/31 06:46:49;;;;;;;16.35;5.65;;;10.10;99.90;;;;;;4974713;28;20039;-51
2023/03/31 06:49:15;;;;;;;15.05;5.30;;;10.10;99.90;;;;;;4977663;28;20105;-52
2023/03/31 06:51:40;;;;;;;15.30;5.30;;;9.70;99.90;;;;;;4979183;28;20042;-53
2023/03/31 06:54:06;;;;;;;15.75;5.60;;;9.90;99.90;;;;;;4963092;28;20039;-53
2023/03/31 06:56:32;;;;;;;15.13;5.60;;;10.20;99.90;;;;;;4978098;28;20039;-55
2023/03/31 06:58:57;;;;;;;12.13;4.60;;;9.70;99.90;;;;;;4944760;28;20042;-51
2023/03/31 07:01:23;;;;;;;16.25;5.60;;;9.80;99.90;;;;;;4977755;28;20031;-55
2023/03/31 07:03:49;;;;;;;17.15;5.20;;;9.70;99.90;;;;;;4979731;28;20332;-55
2023/03/31 07:06:14;;;;;;;17.48;5.35;;;9.90;99.90;;;;;;4980420;28;20042;-53
2023/03/31 07:08:40;;;;;;;14.15;5.45;;;10.10;99.90;;;;;;4974885;28;20062;-55
2023/03/31 07:11:06;;;;;;;11.80;4.55;;;10.20;99.90;;;;;;4977273;28;20038;-55
2023/03/31 07:13:31;;;;;;;17.58;4.93;;;10.00;99.90;;;;;;4979098;28;20059;-50
2023/03/31 07:15:57;;;;;;;15.32;4.68;;;10.30;99.90;;;;;;4979352;28;20088;-55
2023/03/31 07:18:30;;;;;;;13.20;4.97;;;10.30;99.90;;;;;;4979957;28;20031;-55
2023/03/31 07:20:56;;;;;;;13.07;4.57;;;10.00;99.90;;;;;;4970072;28;20085;-54
2023/03/31 07:23:22;;;;;;;12.95;5.10;;;10.50;99.90;;;;;;4968877;28;20505;-50
2023/03/31 07:25:48;;;;;;;14.40;4.93;;;10.00;99.90;;;;;;4969144;28;20054;-52
2023/03/31 07:28:15;;;;;;;15.95;5.57;;;10.20;99.90;;;;;;4970516;28;20030;-55
2023/03/31 07:30:41;;;;;;;12.85;5.00;;;10.50;99.90;;;;;;4970168;28;20043;-54
2023/03/31 07:33:07;;;;;;;13.90;4.53;;;10.40;99.90;;;;;;4967627;28;20348;-54
2023/03/31 07:35:32;;;;;;;12.35;4.85;;;10.50;99.90;;;;;;4951885;28;20097;-52
2023/03/31 07:37:58;;;;;;;14.30;5.03;;;10.10;99.90;;;;;;4969488;28;20034;-55
2023/03/31 07:40:26;;;;;;;13.70;4.85;;;10.20;99.90;;;;;;4967361;28;20176;-53
2023/03/31 07:42:52;;;;;;;16.45;4.68;;;10.40;99.90;;;;;;4955593;28;20046;-55
2023/03/31 07:45:20;;;;;;;13.48;4.70;;;11.30;99.90;;;;;;4968084;28;20043;-52
2023/03/31 07:47:46;;;;;;;10.98;4.07;;;10.30;99.90;;;;;;4967725;28;20041;-55
2023/03/31 07:50:13;;;;;;;18.42;3.85;;;10.20;99.90;;;;;;4969625;28;20038;-53
2023/03/31 07:52:39;;;;;;;12.38;3.70;;;10.40;99.90;;;;;;4967666;28;20512;-52
2023/03/31 07:55:05;;;;;;;14.52;4.18;;;10.50;99.90;;;;;;4967865;28;20034;-56
2023/03/31 07:57:31;;;;;;;11.18;4.18;;;10.70;99.90;;;;;;4968161;28;20036;-54
2023/03/31 07:59:57;;;;;;;12.05;3.63;;;10.60;99.90;;;;;;4968765;28;20586;-55
2023/03/31 08:02:23;;;;;;;15.23;3.90;;;10.50;99.90;;;;;;4954335;28;20038;-55
2023/03/31 08:04:48;;;;;;;14.80;4.20;;;10.40;99.90;;;;;;4968378;28;20030;-53
2023/03/31 08:07:15;;;;;;;11.70;3.70;;;10.70;99.90;;;;;;4968101;28;20117;-55
2023/03/31 08:09:44;;;;;;;9.85;3.42;;;10.80;99.90;;;;;;4966506;28;20063;-54
2023/03/31 08:12:10;;;;;;;11.13;4.18;;;10.60;99.90;;;;;;4966586;28;20121;-51
2023/03/31 08:14:35;;;;;;;9.95;3.20;;;10.50;99.90;;;;;;4967444;28;20039;-52
2023/03/31 08:17:02;;;;;;;12.02;3.35;;;10.90;99.90;;;;;;4966462;28;20073;-55
2023/03/31 08:19:28;;;;;;;12.20;3.25;;;10.40;99.90;;;;;;4968209;28;20037;-52
2023/03/31 08:21:54;;;;;;;8.63;2.90;;;10.70;99.90;;;;;;4969138;28;20034;-56
2023/03/31 08:24:20;;;;;;;10.38;2.80;;;10.70;99.90;;;;;;4967210;28;20030;-54
2023/03/31 08:26:46;;;;;;;10.05;3.13;;;10.70;99.90;;;;;;4966853;28;20038;-54
2023/03/31 08:29:11;;;;;;;10.10;3.70;;;11.10;99.90;;;;;;4967720;28;20042;-54
2023/03/31 08:31:38;;;;;;;11.13;3.15;;;11.10;99.90;;;;;;4965721;28;20054;-53
2023/03/31 08:34:04;;;;;;;7.38;2.40;;;11.20;99.90;;;;;;4968307;28;20050;-53
2023/03/31 08:36:30;;;;;;;8.35;2.72;;;11.10;99.90;;;;;;4966160;28;20050;-55
2023/03/31 08:38:56;;;;;;;7.47;2.25;;;11.30;99.90;;;;;;4969222;28;20033;-51
2023/03/31 08:41:34;;;;;;;8.10;2.50;;;11.20;99.90;;;;;;4965792;28;20430;-55
2023/03/31 08:44:04;;;;;;;6.00;2.00;;;10.90;99.90;;;;;;4968482;28;20034;-55
2023/03/31 08:46:32;;;;;;;5.68;1.90;;;11.10;99.90;;;;;;4967109;28;20050;-53
2023/03/31 08:49:00;;;;;;;9.00;2.45;;;10.80;99.90;;;;;;4967526;28;20047;-50
2023/03/31 08:51:37;;;;;;;8.80;2.38;;;10.80;99.90;;;;;;4967968;28;20537;-55
2023/03/31 08:54:11;;;;;;;4.97;1.83;;;10.90;99.90;;;;;;4967681;28;20035;-54
2023/03/31 08:56:43;;;;;;;6.72;2.08;;;10.80;99.90;;;;;;4967241;28;20045;-54
2023/03/31 08:59:29;;;;;;;8.27;2.20;;;11.00;99.90;;;;;;4967169;28;20494;-56
2023/03/31 09:02:00;;;;;;;5.97;1.88;;;10.90;99.90;;;;;;4967090;28;20045;-53
2023/03/31 09:04:32;;;;;;;8.27;1.90;;;11.00;99.90;;;;;;4966462;28;20379;-56
2023/03/31 09:07:23;;;;;;;8.43;2.40;;;10.80;99.90;;;;;;4965601;28;21042;-52
2023/03/31 09:10:11;;;;;;;7.13;2.25;;;10.90;99.90;;;;;;4966586;28;20050;-52
2023/03/31 09:12:54;;;;;;;8.50;2.20;;;10.60;99.90;;;;;;4965794;28;20042;-54
2023/03/31 09:15:50;;;;;;;7.65;1.95;;;10.60;99.90;;;;;;4966774;28;20471;-54
2023/03/31 09:18:18;;;;;;;7.10;2.20;;;10.90;99.90;;;;;;4967140;28;20047;-54
2023/03/31 09:20:48;;;;;;;10.57;2.47;;;10.60;99.90;;;;;;4965803;28;20496;-56
2023/03/31 09:23:20;;;;;;;6.22;2.20;;;10.90;99.90;;;;;;4968126;28;20081;-55
2023/03/31 09:25:46;;;;;;;10.05;2.42;;;10.90;99.90;;;;;;4966460;28;20056;-56
2023/03/31 09:28:21;;;;;;;10.13;2.10;;;10.70;99.90;;;;;;4967298;28;20027;-54
2023/03/31 09:30:50;;;;;;;8.65;2.15;;;11.00;99.90;;;;;;4954060;28;20042;-53
2023/03/31 09:33:33;;;;;;;7.75;2.10;;;11.20;99.90;;;;;;4959290;28;20038;-51
2023/03/31 09:36:00;;;;;;;9.15;2.38;;;10.90;99.90;;;;;;4967011;28;20049;-55
2023/03/31 09:38:28;;;;;;;6.47;2.13;;;10.90;99.90;;;;;;4966700;28;20038;-54
2023/03/31 09:41:02;;;;;;;6.55;2.40;;;11.40;99.90;;;;;;4965101;28;20051;-52
2023/03/31 09:43:30;;;;;;;7.30;2.10;;;11.30;99.90;;;;;;4964756;28;20414;-54
2023/03/31 09:45:56;;;;;;;12.23;2.47;;;11.10;99.90;;;;;;4964936;28;20776;-55
2023/03/31 09:48:25;;;;;;;9.63;2.22;;;11.10;99.90;;;;;;4965394;28;21400;-54
2023/03/31 09:50:57;;;;;;;8.23;2.20;;;11.40;99.90;;;;;;4965990;28;20126;-52
2023/03/31 09:53:45;;;;;;;8.52;1.98;;;11.70;99.90;;;;;;4968610;28;20552;-53
2023/03/31 09:56:10;;;;;;;21.02;2.97;;;11.70;99.90;;;;;;4965751;28;20070;-52
2023/03/31 09:58:41;;;;;;;11.20;2.40;;;11.60;99.90;;;;;;4967471;28;20035;-52
2023/03/31 10:01:09;;;;;;;17.50;2.90;;;11.90;99.90;;;;;;4966706;28;20132;-54
2023/03/31 10:03:48;;;;;;;8.70;2.20;;;12.00;99.90;;;;;;4965690;28;20170;-55
2023/03/31 10:06:15;;;;;;;9.90;2.55;;;12.10;99.90;;;;;;4965178;28;20121;-53
2023/03/31 10:08:47;;;;;;;11.20;2.50;;;12.20;99.90;;;;;;4965944;28;20042;-53
2023/03/31 10:11:13;;;;;;;9.25;2.90;;;12.40;99.90;;;;;;4966583;28;20038;-55
2023/03/31 10:13:47;;;;;;;14.07;2.40;;;12.10;99.90;;;;;;4969269;28;20518;-52
2023/03/31 10:16:23;;;;;;;12.93;2.70;;;12.30;99.90;;;;;;4971119;28;20050;-51
2023/03/31 10:18:48;;;;;;;9.18;2.30;;;12.00;99.90;;;;;;4969389;28;20035;-53
2023/03/31 10:21:24;;;;;;;8.88;2.70;;;12.10;99.90;;;;;;4970480;28;20046;-50
2023/03/31 10:23:51;;;;;;;11.20;2.67;;;11.90;99.90;;;;;;4954920;28;20033;-53
2023/03/31 10:26:24;;;;;;;11.55;2.50;;;12.00;99.90;;;;;;4969413;28;20054;-51
2023/03/31 10:28:51;;;;;;;14.93;3.30;;;11.60;99.90;;;;;;4972807;28;20375;-48
2023/03/31 10:31:18;;;;;;;9.85;3.20;;;11.80;99.90;;;;;;4975503;28;20051;-53
2023/03/31 10:33:47;;;;;;;8.82;2.50;;;11.60;99.90;;;;;;4960003;28;20421;-54
2023/03/31 10:36:26;;;;;;;9.48;2.97;;;11.50;99.90;;;;;;4976700;28;20050;-54
2023/03/31 10:38:53;;;;;;;9.23;3.10;;;11.70;99.90;;;;;;4984502;28;20043;-56
2023/03/31 10:41:22;;;;;;;18.25;4.28;;;11.70;99.90;;;;;;4978980;28;20049;-54
2023/03/31 10:43:56;;;;;;;11.25;2.55;;;11.60;99.90;;;;;;4977589;28;20054;-54
2023/03/31 10:46:46;;;;;;;10.73;3.80;;;11.80;99.90;;;;;;4977324;28;20054;-55
2023/03/31 10:49:25;;;;;;;10.82;3.33;;;11.70;99.90;;;;;;4976551;28;20158;-56
2023/03/31 10:51:58;;;;;;;14.15;3.63;;;11.80;99.90;;;;;;4978020;28;20050;-55
2023/03/31 10:54:24;;;;;;;14.50;3.20;;;11.90;99.90;;;;;;4978699;28;20061;-56
2023/03/31 10:57:04;;;;;;;11.73;3.25;;;11.60;99.90;;;;;;4977865;28;20047;-54
2023/03/31 10:59:36;;;;;;;10.82;3.30;;;11.80;99.90;;;;;;4979516;28;20195;-57
2023/03/31 11:02:39;;;;;;;16.05;3.50;;;11.90;99.90;;;;;;4977320;28;20066;-55
2023/03/31 11:05:21;;;;;;;10.93;4.03;;;11.90;99.90;;;;;;4980394;28;20182;-55
2023/03/31 11:07:56;;;;;;;14.30;3.67;;;11.80;99.90;;;;;;4978990;28;20078;-54
2023/03/31 11:10:40;;;;;;;12.73;3.88;;;11.50;99.90;;;;;;4976106;28;20054;-55
2023/03/31 11:13:11;;;;;;;14.05;3.88;;;11.60;99.90;;;;;;4976515;28;20050;-56
2023/03/31 11:15:41;;;;;;;11.77;3.60;;;11.80;99.90;;;;;;4982618;28;20101;-54
2023/03/31 11:18:13;;;;;;;13.50;4.35;;;11.80;99.90;;;;;;4978629;28;20038;-54
2023/03/31 11:21:24;;;;;;;14.90;4.40;;;11.60;99.90;;;;;;4977437;28;20046;-53
2023/03/31 11:24:23;;;;;;;15.00;4.38;;;11.90;99.90;;;;;;4968421;28;20058;-56
2023/03/31 11:27:12;;;;;;;16.30;4.53;;;11.70;99.90;;;;;;4975292;28;20042;-56
2023/03/31 11:29:56;;;;;;;16.35;5.30;;;12.10;99.90;;;;;;4985156;28;20038;-54
2023/03/31 11:32:45;;;;;;;16.52;4.75;;;12.30;99.90;;;;;;4975545;28;20058;-56
2023/03/31 11:35:38;;;;;;;18.70;5.13;;;12.10;99.90;;;;;;4976539;28;20042;-52
2023/03/31 11:38:24;;;;;;;17.48;4.53;;;12.30;99.90;;;;;;4977915;28;20077;-55
2023/03/31 11:41:20;;;;;;;14.57;3.85;;;12.40;99.90;;;;;;4982161;28;20045;-54
2023/03/31 11:43:53;;;;;;;14.40;4.43;;;12.20;99.90;;;;;;4981249;28;20051;-55
2023/03/31 11:46:32;;;;;;;13.90;3.72;;;12.20;99.90;;;;;;4974111;28;20050;-55
2023/03/31 11:49:02;;;;;;;15.80;4.22;;;12.60;99.90;;;;;;4962193;28;20130;-54
2023/03/31 11:51:58;;;;;;;12.77;4.07;;;12.40;99.90;;;;;;4974789;28;20057;-55
2023/03/31 11:54:49;;;;;;;13.50;3.38;;;12.80;99.90;;;;;;4958991;28;20046;-57
2023/03/31 11:57:30;;;;;;;15.70;4.05;;;12.90;99.90;;;;;;4978856;28;20051;-54
2023/03/31 12:00:10;;;;;;;15.70;4.50;;;12.90;99.90;;;;;;4974836;28;20125;-55
2023/03/31 12:02:58;;;;;;;14.45;4.05;;;13.10;99.90;;;;;;4972241;28;20031;-55
2023/03/31 12:05:27;;;;;;;18.40;4.15;;;13.10;99.90;;;;;;4972508;28;20035;-54
2023/03/31 12:08:02;;;;;;;14.90;4.00;;;12.90;99.90;;;;;;4972244;28;20035;-55
2023/03/31 12:10:44;;;;;;;16.05;3.38;;;12.90;99.90;;;;;;4979969;28;20055;-54
2023/03/31 12:13:27;;;;;;;12.95;3.47;;;12.90;99.90;;;;;;4979904;28;20494;-57
2023/03/31 12:16:18;;;;;;;14.93;3.58;;;12.80;99.90;;;;;;4979491;28;20049;-57
2023/03/31 12:19:06;;;;;;;15.38;3.72;;;12.90;99.90;;;;;;4982924;28;20126;-53
2023/03/31 12:21:33;;;;;;;17.20;3.67;;;12.80;99.90;;;;;;4975513;28;20042;-55
2023/03/31 12:23:59;;;;;;;13.52;3.55;;;12.80;99.90;;;;;;4955969;28;20043;-55
2023/03/31 12:26:39;;;;;;;15.15;3.30;;;12.70;99.90;;;;;;4973074;28;20462;-53
2023/03/31 12:29:35;;;;;;;15.15;3.40;;;12.90;99.90;;;;;;4977454;28;20099;-55
2023/03/31 12:32:08;;;;;;;11.00;3.08;;;12.80;99.90;;;;;;4972750;28;20517;-57
2023/03/31 12:34:40;;;;;;;11.10;3.20;;;12.80;99.90;;;;;;4974383;28;20061;-54
2023/03/31 12:37:25;;;;;;;11.30;2.58;;;12.80;99.90;;;;;;4979778;28;20049;-52
2023/03/31 12:39:56;;;;;;;11.98;3.10;;;13.00;99.90;;;;;;4977565;28;20089;-56
2023/03/31 12:42:41;;;;;;;10.18;3.10;;;12.90;99.90;;;;;;4975500;28;20121;-56
2023/03/31 12:45:16;;;;;;;;;;;12.80;99.90;;;;;;4975887;28;20038;-56
2023/03/31 12:47:57;;;;;;;8.70;2.35;;;12.80;99.90;;;;;;4972183;28;19957;-57
2023/03/31 12:50:38;;;;;;;12.68;2.47;;;13.00;99.90;;;;;;4976046;28;20031;-54
2023/03/31 12:53:18;;;;;;;9.73;2.42;;;13.10;99.90;;;;;;4980469;28;20038;-55
2023/03/31 12:55:53;;;;;;;9.48;2.35;;;13.20;99.90;;;;;;4974295;28;20039;-55
2023/03/31 12:58:21;;;;;;;12.38;3.17;;;13.20;99.90;;;;;;4978241;28;20038;-56
2023/03/31 13:01:16;;;;;;;19.55;3.85;;;13.20;99.90;;;;;;4973515;28;20038;-58
2023/03/31 13:03:46;;;;;;;11.23;2.30;;;13.10;99.90;;;;;;4972971;28;20061;-56
2023/03/31 13:06:24;;;;;;;10.88;2.97;;;12.60;99.90;;;;;;4976313;28;20098;-54